createdAt,value
2023-02-27T00:00:25.924Z,74.39
2023-02-27T00:02:56.001Z,74.43
2023-02-27T00:05:26.057Z,74.81
2023-02-27T00:07:55.516Z,74.71
2023-02-27T00:10:25.006Z,74.51
2023-02-27T00:12:57.122Z,74.47
2023-02-27T00:15:26.595Z,74.61
2023-02-27T00:17:56.312Z,74.77
2023-02-27T00:20:25.755Z,74.58
2023-02-27T00:22:55.210Z,74.60
2023-02-27T00:25:24.627Z,74.88
2023-02-27T00:27:54.031Z,74.58
2023-02-27T00:30:26.565Z,74.97
2023-02-27T00:32:56.517Z,75.10
2023-02-27T00:35:26.026Z,75.15
2023-02-27T00:37:55.714Z,75.18
2023-02-27T00:40:25.410Z,74.79
2023-02-27T00:42:54.926Z,74.86
2023-02-27T00:45:27.059Z,74.92
2023-02-27T00:47:56.605Z,75.27
2023-02-27T00:50:26.028Z,75.41
2023-02-27T00:52:55.453Z,75.92
2023-02-27T00:55:26.944Z,76.22
2023-02-27T00:57:56.821Z,76.09
2023-02-27T01:00:29.386Z,76.36
2023-02-27T01:02:58.860Z,76.43
2023-02-27T01:05:28.339Z,76.66
2023-02-27T01:07:57.837Z,76.69
2023-02-27T01:10:27.232Z,77.05
2023-02-27T01:12:56.637Z,77.06
2023-02-27T01:15:25.996Z,77.25
2023-02-27T01:17:57.994Z,76.86
2023-02-27T01:20:27.349Z,76.68
2023-02-27T01:22:56.729Z,76.51
2023-02-27T01:25:26.081Z,76.83
2023-02-27T01:27:55.506Z,77.30
2023-02-27T01:30:24.927Z,77.43
2023-02-27T01:32:54.492Z,77.26
2023-02-27T01:35:29.308Z,77.38
2023-02-27T01:37:58.738Z,77.29
2023-02-27T01:40:28.487Z,77.29
2023-02-27T01:42:57.988Z,77.22
2023-02-27T01:45:33.072Z,77.30
2023-02-27T01:48:07.873Z,77.66
2023-02-27T01:50:46.026Z,77.63
2023-02-27T01:53:17.376Z,77.54
2023-02-27T01:55:49.233Z,77.60
2023-02-27T01:58:18.956Z,77.66
2023-02-27T02:00:49.032Z,77.60
2023-02-27T02:03:24.878Z,77.66
2023-02-27T02:05:59.573Z,77.50
2023-02-27T02:08:31.458Z,77.33
2023-02-27T02:11:01.747Z,77.61
2023-02-27T02:13:31.440Z,77.62
2023-02-27T02:16:16.952Z,77.45
2023-02-27T02:18:55.674Z,76.89
2023-02-27T02:22:02.956Z,77.32
2023-02-27T02:25:05.944Z,77.20
2023-02-27T02:27:50.449Z,76.95
2023-02-27T02:30:47.580Z,77.19
2023-02-27T02:33:47.345Z,77.41
2023-02-27T02:36:43.468Z,77.32
2023-02-27T02:39:27.181Z,77.31
2023-02-27T02:42:05.679Z,77.54
2023-02-27T02:44:48.810Z,77.44
2023-02-27T02:47:29.766Z,77.68
2023-02-27T02:50:05.411Z,77.75
2023-02-27T02:52:47.858Z,77.46
2023-02-27T02:55:25.034Z,77.59
2023-02-27T02:58:00.772Z,77.86
2023-02-27T03:00:35.201Z,77.91
2023-02-27T03:03:13.778Z,78.10
2023-02-27T03:05:50.474Z,78.02
2023-02-27T03:08:25.106Z,77.93
2023-02-27T03:11:00.333Z,78.05
2023-02-27T03:13:36.819Z,77.82
2023-02-27T03:16:14.916Z,77.89
2023-02-27T03:18:49.042Z,77.83
2023-02-27T03:21:27.375Z,78.51
2023-02-27T03:24:02.454Z,79.02
2023-02-27T03:26:38.911Z,79.09
2023-02-27T03:29:11.962Z,79.32
2023-02-27T03:31:46.788Z,79.93
2023-02-27T03:34:21.747Z,79.94
2023-02-27T03:36:58.281Z,80.33
2023-02-27T03:39:35.396Z,80.32
2023-02-27T03:42:17.254Z,80.28
2023-02-27T03:45:14.448Z,80.48
2023-02-27T03:47:44.018Z,80.65
2023-02-27T03:50:14.505Z,81.09
2023-02-27T03:52:45.104Z,81.00
2023-02-27T03:55:18.695Z,81.04
2023-02-27T03:57:52.664Z,81.07
2023-02-27T04:00:24.329Z,81.09
2023-02-27T04:02:56.104Z,80.88
2023-02-27T04:05:28.445Z,80.14
2023-02-27T04:08:16.386Z,79.62
2023-02-27T04:11:04.431Z,79.63
2023-02-27T04:14:00.961Z,79.57
2023-02-27T04:16:47.228Z,79.38
2023-02-27T04:19:32.691Z,79.30
2023-02-27T04:22:15.425Z,79.55
2023-02-27T04:24:55.561Z,79.56
2023-02-27T04:27:36.269Z,79.64
2023-02-27T04:30:19.087Z,79.66
2023-02-27T04:32:55.808Z,79.66
2023-02-27T04:35:28.958Z,79.77
2023-02-27T04:38:03.342Z,79.83
2023-02-27T04:40:38.224Z,79.79
2023-02-27T04:43:11.491Z,79.54
2023-02-27T04:45:45.520Z,79.36
2023-02-27T04:48:22.182Z,79.39
2023-02-27T04:50:57.919Z,79.22
2023-02-27T04:53:33.100Z,78.90
2023-02-27T04:56:07.287Z,79.07
2023-02-27T04:58:39.525Z,79.19
2023-02-27T05:01:18.851Z,79.23
2023-02-27T05:03:52.727Z,79.27
2023-02-27T05:06:25.979Z,79.48
2023-02-27T05:09:01.798Z,79.89
2023-02-27T05:11:35.624Z,79.83
2023-02-27T05:14:13.240Z,79.88
2023-02-27T05:16:49.441Z,79.70
2023-02-27T05:19:19.622Z,79.72
2023-02-27T05:21:56.560Z,79.39
2023-02-27T05:24:35.563Z,79.35
2023-02-27T05:27:17.767Z,78.90
2023-02-27T05:29:52.049Z,78.76
2023-02-27T05:32:33.983Z,78.36
2023-02-27T05:35:12.046Z,78.18
2023-02-27T05:37:47.806Z,77.93
2023-02-27T05:40:21.886Z,77.80
2023-02-27T05:42:56.194Z,77.38
2023-02-27T05:45:30.374Z,77.24
2023-02-27T05:48:07.219Z,77.35
2023-02-27T05:50:40.456Z,77.24
2023-02-27T05:53:14.186Z,76.96
2023-02-27T05:55:46.843Z,77.19
2023-02-27T05:58:19.237Z,76.92
2023-02-27T06:00:54.266Z,76.53
2023-02-27T06:03:26.677Z,76.47
2023-02-27T06:05:57.894Z,75.93
2023-02-27T06:08:28.027Z,76.02
2023-02-27T06:10:57.695Z,75.93
2023-02-27T06:13:28.415Z,75.78
2023-02-27T06:15:57.942Z,75.37
2023-02-27T06:18:30.035Z,75.58
2023-02-27T06:20:59.668Z,75.53
2023-02-27T06:23:29.029Z,75.82
2023-02-27T06:25:58.422Z,75.14
2023-02-27T06:28:27.860Z,75.27
2023-02-27T06:30:57.887Z,74.89
2023-02-27T06:33:29.886Z,74.57
2023-02-27T06:35:59.478Z,75.14
2023-02-27T06:38:29.054Z,74.64
2023-02-27T06:40:59.116Z,74.83
2023-02-27T06:43:28.948Z,74.74
2023-02-27T06:45:58.424Z,75.10
2023-02-27T06:48:30.496Z,74.83
2023-02-27T06:51:00.170Z,74.95
2023-02-27T06:53:29.707Z,74.49
2023-02-27T06:55:59.288Z,74.49
2023-02-27T06:58:28.797Z,74.72
2023-02-27T07:00:58.244Z,74.40
2023-02-27T07:03:30.772Z,73.89
2023-02-27T07:06:00.756Z,73.85
2023-02-27T07:08:30.286Z,73.78
2023-02-27T07:10:59.712Z,73.48
2023-02-27T07:13:29.145Z,73.55
2023-02-27T07:15:58.572Z,73.43
2023-02-27T07:18:31.048Z,72.99
2023-02-27T07:21:00.407Z,73.04
2023-02-27T07:23:29.813Z,72.47
2023-02-27T07:25:59.177Z,72.44
2023-02-27T07:28:29.089Z,72.14
2023-02-27T07:30:58.526Z,71.64
2023-02-27T07:33:32.209Z,71.83
2023-02-27T07:36:01.648Z,71.45
2023-02-27T07:38:32.421Z,72.28
2023-02-27T07:41:01.877Z,72.22
2023-02-27T07:43:31.254Z,72.27
2023-02-27T07:46:04.021Z,72.57
2023-02-27T07:48:36.719Z,72.08
2023-02-27T07:51:06.342Z,72.39
2023-02-27T07:53:35.956Z,71.98
2023-02-27T07:56:05.346Z,72.34
2023-02-27T07:58:35.277Z,72.32
2023-02-27T08:01:04.662Z,72.05
2023-02-27T08:03:36.635Z,72.05
2023-02-27T08:06:06.254Z,71.87
2023-02-27T08:08:35.760Z,71.54
2023-02-27T08:11:05.288Z,71.77
2023-02-27T08:16:24.153Z,71.09
2023-02-27T08:18:56.132Z,71.74
2023-02-27T08:21:26.115Z,71.75
2023-02-27T08:54:17.353Z,70.20
2023-02-27T08:56:47.680Z,70.36
2023-02-27T08:59:17.550Z,69.75
2023-02-27T09:01:47.002Z,70.11
2023-02-27T09:04:16.484Z,69.48
2023-02-27T09:06:45.943Z,69.89
2023-02-27T09:09:17.984Z,69.41
2023-02-27T09:11:48.380Z,69.90
2023-02-27T09:14:17.896Z,69.89
2023-02-27T09:16:47.558Z,69.95
2023-02-27T09:19:17.005Z,70.09
2023-02-27T09:21:46.423Z,70.11
2023-02-27T09:24:20.547Z,70.22
2023-02-27T09:26:50.676Z,69.97
2023-02-27T09:29:21.408Z,69.44
2023-02-27T09:31:50.915Z,70.00
2023-02-27T09:34:20.499Z,69.88
2023-02-27T09:36:49.959Z,69.05
2023-02-27T09:39:22.035Z,68.74
2023-02-27T09:41:59.044Z,68.46
2023-02-27T09:44:46.076Z,68.35
2023-02-27T09:47:24.032Z,68.14
2023-02-27T09:50:03.981Z,68.07
2023-02-27T09:52:36.956Z,66.75
2023-02-27T09:55:18.735Z,65.51
2023-02-27T09:57:53.420Z,65.36
2023-02-27T10:00:47.673Z,64.85
2023-02-27T10:03:33.152Z,64.08
2023-02-27T10:06:21.693Z,63.46
2023-02-27T10:09:01.139Z,63.78
2023-02-27T10:11:41.740Z,62.52
2023-02-27T10:14:29.564Z,61.11
2023-02-27T10:17:00.895Z,61.64
2023-02-27T10:19:33.925Z,61.46
2023-02-27T10:22:07.784Z,61.26
2023-02-27T10:24:42.977Z,61.33
2023-02-27T10:27:20.410Z,60.92
2023-02-27T10:29:50.227Z,60.95
2023-02-27T10:32:23.854Z,61.17
2023-02-27T10:34:56.970Z,60.82
2023-02-27T10:37:30.406Z,60.02
2023-02-27T10:40:04.434Z,59.22
2023-02-27T10:42:41.746Z,59.77
2023-02-27T10:45:17.330Z,58.70
2023-02-27T10:47:47.618Z,59.51
2023-02-27T10:50:25.438Z,58.82
2023-02-27T10:52:56.683Z,57.94
2023-02-27T10:55:31.898Z,56.58
2023-02-27T10:58:05.902Z,56.98
2023-02-27T11:00:44.279Z,55.20
2023-02-27T11:03:23.362Z,56.81
2023-02-27T11:06:00.089Z,55.40
2023-02-27T11:08:32.252Z,56.29
2023-02-27T11:11:05.199Z,55.23
2023-02-27T11:13:39.745Z,55.62
2023-02-27T11:16:17.467Z,56.02
2023-02-27T11:18:48.718Z,55.89
2023-02-27T11:21:23.091Z,55.64
2023-02-27T11:24:03.946Z,55.19
2023-02-27T11:26:36.436Z,55.47
2023-02-27T11:29:15.413Z,54.39
2023-02-27T11:31:51.492Z,55.24
2023-02-27T11:34:29.125Z,55.29
2023-02-27T11:37:03.465Z,54.83
2023-02-27T11:39:36.877Z,54.25
2023-02-27T11:42:17.649Z,54.17
2023-02-27T11:45:02.815Z,53.12
2023-02-27T11:47:36.216Z,53.76
2023-02-27T11:50:28.463Z,53.59
2023-02-27T11:53:07.278Z,53.65
2023-02-27T11:55:38.352Z,53.46
2023-02-27T11:58:16.232Z,52.62
2023-02-27T12:00:52.064Z,52.25
2023-02-27T12:03:27.698Z,50.89
2023-02-27T12:06:00.045Z,50.33
2023-02-27T12:08:37.929Z,49.55
2023-02-27T12:11:16.192Z,49.23
2023-02-27T12:13:50.097Z,47.80
2023-02-27T12:16:32.324Z,47.00
2023-02-27T12:19:08.498Z,48.57
2023-02-27T12:21:42.933Z,48.06
2023-02-27T12:24:19.752Z,48.74
2023-02-27T12:26:52.323Z,49.55
2023-02-27T12:29:29.211Z,49.40
2023-02-27T12:32:05.921Z,40.18
2023-02-27T12:34:43.555Z,36.20
2023-02-27T12:37:18.088Z,37.54
2023-02-27T12:39:48.331Z,36.34
2023-02-27T12:42:42.714Z,32.70
2023-02-27T12:45:50.907Z,30.32
2023-02-27T12:48:33.862Z,26.88
2023-02-27T12:51:16.647Z,34.03
2023-02-27T12:54:05.095Z,37.66
2023-02-27T12:56:48.262Z,39.60
2023-02-27T12:59:31.558Z,38.81
2023-02-27T13:02:18.811Z,41.27
2023-02-27T13:05:03.073Z,44.71
2023-02-27T13:07:37.580Z,45.47
2023-02-27T13:10:16.597Z,46.06
2023-02-27T13:12:53.693Z,28.55
2023-02-27T13:15:30.126Z,35.33
2023-02-27T13:18:05.177Z,33.82
2023-02-27T13:20:44.266Z,21.14
2023-02-27T13:23:20.857Z,25.85
2023-02-27T13:25:53.441Z,30.55
2023-02-27T13:28:28.178Z,27.58
2023-02-27T13:31:08.243Z,26.72
2023-02-27T13:33:46.266Z,24.90
2023-02-27T13:36:24.640Z,19.54
2023-02-27T13:38:56.294Z,18.27
2023-02-27T13:41:41.047Z,15.96
2023-02-27T13:44:40.381Z,15.43
2023-02-27T13:47:40.472Z,15.32
2023-02-27T13:50:40.633Z,13.98
2023-02-27T13:53:20.681Z,14.25
2023-02-27T13:55:50.407Z,17.51
2023-02-27T13:58:24.819Z,26.17
2023-02-27T14:01:02.393Z,30.47
2023-02-27T14:03:33.978Z,33.20
2023-02-27T14:06:08.657Z,34.98
2023-02-27T14:08:55.708Z,35.76
2023-02-27T14:11:33.085Z,35.91
2023-02-27T14:14:08.494Z,37.82
2023-02-27T14:16:54.891Z,40.29
2023-02-27T14:19:57.265Z,40.64
2023-02-27T14:22:37.328Z,41.01
2023-02-27T14:25:32.752Z,41.14
2023-02-27T14:28:04.310Z,40.51
2023-02-27T14:30:44.900Z,39.73
2023-02-27T14:33:33.367Z,40.24
2023-02-27T14:36:11.432Z,41.37
2023-02-27T14:38:41.498Z,41.61
2023-02-27T14:41:27.693Z,41.93
2023-02-27T14:43:59.106Z,42.84
2023-02-27T14:46:32.411Z,42.66
2023-02-27T14:49:04.455Z,41.98
2023-02-27T14:51:36.091Z,41.60
2023-02-27T14:54:10.035Z,42.43
2023-02-27T14:56:43.083Z,43.89
2023-02-27T14:59:26.342Z,44.25
2023-02-27T15:01:58.004Z,44.16
2023-02-27T15:04:31.017Z,45.34
2023-02-27T15:07:02.974Z,46.11
2023-02-27T15:09:37.591Z,46.10
2023-02-27T15:12:11.127Z,46.56
2023-02-27T15:14:42.757Z,45.84
2023-02-27T15:17:24.265Z,45.88
2023-02-27T15:19:55.605Z,45.92
2023-02-27T15:22:38.838Z,45.72
2023-02-27T15:25:10.339Z,46.14
2023-02-27T15:27:44.617Z,46.70
2023-02-27T15:30:23.647Z,46.85
2023-02-27T15:32:55.437Z,46.83
2023-02-27T15:35:28.071Z,47.53
2023-02-27T15:37:59.958Z,47.48
2023-02-27T15:40:31.443Z,48.30
2023-02-27T15:43:04.254Z,48.15
2023-02-27T15:45:34.768Z,48.60
2023-02-27T15:48:04.961Z,48.73
2023-02-27T15:50:38.895Z,48.75
2023-02-27T15:53:14.905Z,48.73
2023-02-27T15:55:47.986Z,49.21
2023-02-27T15:58:26.718Z,50.06
2023-02-27T16:01:02.962Z,49.39
2023-02-27T16:03:38.426Z,49.64
2023-02-27T16:06:13.728Z,50.03
2023-02-27T16:08:49.106Z,50.16
2023-02-27T16:11:22.213Z,50.65
2023-02-27T16:13:54.974Z,51.01
2023-02-27T16:16:35.958Z,51.29
2023-02-27T16:19:18.957Z,51.00
2023-02-27T16:22:07.351Z,51.89
2023-02-27T16:24:36.986Z,52.19
2023-02-27T16:27:07.188Z,52.23
2023-02-27T16:29:44.882Z,53.18
2023-02-27T16:32:25.560Z,53.75
2023-02-27T16:35:03.548Z,54.15
2023-02-27T16:37:39.563Z,53.96
2023-02-27T16:40:16.845Z,54.63
2023-02-27T16:42:47.225Z,55.51
2023-02-27T16:45:22.929Z,55.37
2023-02-27T16:47:54.248Z,55.76
2023-02-27T16:50:26.610Z,56.18
2023-02-27T16:52:57.213Z,56.30
2023-02-27T16:55:27.929Z,56.64
2023-02-27T16:57:57.383Z,56.55
2023-02-27T17:00:29.628Z,56.95
2023-02-27T17:02:59.127Z,57.30
2023-02-27T17:05:28.670Z,57.39
2023-02-27T17:07:58.042Z,57.64
2023-02-27T17:10:27.706Z,57.72
2023-02-27T17:12:57.306Z,57.92
2023-02-27T17:15:30.129Z,57.98
2023-02-27T17:17:59.501Z,58.02
2023-02-27T17:20:30.303Z,58.68
2023-02-27T17:22:59.783Z,58.49
2023-02-27T17:25:29.195Z,58.17
2023-02-27T17:27:58.756Z,58.16
2023-02-27T17:30:30.949Z,58.58
2023-02-27T17:33:02.071Z,58.41
2023-02-27T17:35:33.382Z,58.46
2023-02-27T17:38:03.394Z,58.98
2023-02-27T17:40:32.987Z,58.18
2023-02-27T17:43:02.382Z,57.76
2023-02-27T17:45:34.401Z,57.70
2023-02-27T17:48:03.836Z,57.93
2023-02-27T17:50:34.516Z,57.94
2023-02-27T17:53:03.952Z,58.23
2023-02-27T17:55:33.480Z,58.25
2023-02-27T17:58:02.923Z,58.37
2023-02-27T18:00:35.082Z,58.36
2023-02-27T18:03:04.611Z,57.87
2023-02-27T18:05:34.036Z,58.16
2023-02-27T18:08:06.636Z,57.91
2023-02-27T18:10:36.849Z,58.19
2023-02-27T18:13:06.211Z,57.85
2023-02-27T18:15:38.315Z,58.33
2023-02-27T18:18:07.900Z,58.57
2023-02-27T18:20:37.412Z,58.59
2023-02-27T18:23:07.072Z,58.42
2023-02-27T18:25:36.608Z,58.64
2023-02-27T18:28:06.507Z,58.80
2023-02-27T18:30:41.435Z,58.25
2023-02-27T18:33:10.923Z,58.49
2023-02-27T18:35:40.527Z,58.03
2023-02-27T18:38:10.055Z,58.80
2023-02-27T18:40:40.018Z,58.29
2023-02-27T18:43:09.429Z,58.35
2023-02-27T18:45:42.004Z,57.82
2023-02-27T18:48:11.823Z,57.95
2023-02-27T18:50:41.380Z,58.20
2023-02-27T18:53:10.790Z,58.95
2023-02-27T18:55:40.234Z,58.99
2023-02-27T18:58:09.638Z,59.13
2023-02-27T19:00:39.053Z,59.39
2023-02-27T19:03:11.272Z,59.24
2023-02-27T19:05:43.141Z,59.58
2023-02-27T19:08:12.905Z,59.65
2023-02-27T19:10:43.001Z,60.20
2023-02-27T19:13:13.673Z,59.94
2023-02-27T19:15:43.256Z,59.78
2023-02-27T19:18:15.431Z,59.41
2023-02-27T19:20:44.838Z,59.58
2023-02-27T19:23:14.391Z,59.71
2023-02-27T19:25:47.744Z,61.03
2023-02-27T19:28:17.880Z,60.11
2023-02-27T19:30:47.420Z,60.08
2023-02-27T19:33:19.350Z,60.04
2023-02-27T19:35:48.843Z,60.38
2023-02-27T19:38:18.455Z,59.96
2023-02-27T19:40:48.127Z,60.18
2023-02-27T19:43:18.015Z,60.24
2023-02-27T19:45:49.742Z,60.15
2023-02-27T19:48:23.626Z,60.59
2023-02-27T19:50:53.239Z,60.21
2023-02-27T19:53:23.076Z,60.40
2023-02-27T19:56:09.870Z,60.74
2023-02-27T19:58:52.579Z,60.71
2023-02-27T20:01:40.630Z,60.73
2023-02-27T20:04:18.853Z,61.49
2023-02-27T20:06:53.047Z,61.11
2023-02-27T20:09:23.297Z,61.64
2023-02-27T20:11:58.263Z,62.26
2023-02-27T20:14:29.609Z,62.53
2023-02-27T20:16:59.345Z,62.89
2023-02-27T20:19:34.697Z,63.05
2023-02-27T20:22:04.274Z,63.30
2023-02-27T20:24:33.660Z,63.04
2023-02-27T20:27:03.079Z,63.13
2023-02-27T20:29:32.548Z,62.95
2023-02-27T20:32:02.335Z,63.02
2023-02-27T20:34:34.914Z,62.91
2023-02-27T20:37:06.675Z,62.96
2023-02-27T20:39:39.440Z,62.51
2023-02-27T20:42:09.150Z,62.43
2023-02-27T20:44:40.539Z,62.27
2023-02-27T20:47:10.535Z,62.11
2023-02-27T20:49:42.910Z,62.74
2023-02-27T20:52:12.724Z,62.93
2023-02-27T20:54:45.111Z,62.53
2023-02-27T20:57:14.517Z,62.66
2023-02-27T20:59:43.984Z,62.70
2023-02-27T21:02:14.037Z,62.37
2023-02-27T21:04:47.546Z,62.47
2023-02-27T21:07:21.335Z,62.68
2023-02-27T21:09:50.967Z,62.14
2023-02-27T21:12:20.650Z,62.14
2023-02-27T21:14:50.296Z,62.71
2023-02-27T21:17:19.677Z,63.24
2023-02-27T21:19:51.907Z,64.33
2023-02-27T21:22:21.432Z,64.12
2023-02-27T21:24:53.684Z,64.16
2023-02-27T21:27:23.166Z,64.15
2023-02-27T21:29:53.264Z,64.44
2023-02-27T21:32:22.752Z,64.31
2023-02-27T21:34:54.827Z,64.04
2023-02-27T21:37:24.438Z,64.27
2023-02-27T21:39:56.796Z,65.02
2023-02-27T21:42:26.855Z,65.09
2023-02-27T21:44:56.330Z,65.05
2023-02-27T21:47:25.766Z,65.11
2023-02-27T21:49:57.967Z,65.34
2023-02-27T21:52:27.387Z,65.69
2023-02-27T21:54:57.639Z,65.66
2023-02-27T21:57:27.108Z,65.73
2023-02-27T21:59:56.591Z,65.67
2023-02-27T22:02:26.005Z,65.78
2023-02-27T22:04:58.068Z,65.71
2023-02-27T22:07:27.516Z,65.86
2023-02-27T22:09:57.094Z,65.77
2023-02-27T22:12:27.094Z,65.74
2023-02-27T22:14:56.485Z,65.31
2023-02-27T22:17:25.873Z,65.41
2023-02-27T22:19:57.833Z,65.63
2023-02-27T22:22:27.322Z,65.21
2023-02-27T22:24:56.817Z,65.80
2023-02-27T22:27:26.223Z,65.68
2023-02-27T22:29:55.831Z,65.56
2023-02-27T22:32:25.329Z,65.79
2023-02-27T22:34:54.728Z,65.81
2023-02-27T22:37:26.931Z,66.06
2023-02-27T22:39:56.325Z,66.30
2023-02-27T22:42:25.738Z,66.03
2023-02-27T22:44:55.189Z,66.40
2023-02-27T22:47:24.856Z,66.11
2023-02-27T22:49:54.548Z,66.07
2023-02-27T22:52:26.553Z,66.27
2023-02-27T22:54:56.260Z,66.13
2023-02-27T22:57:25.737Z,66.66
2023-02-27T22:59:55.487Z,66.82
2023-02-27T23:02:25.220Z,67.30
2023-02-27T23:04:54.608Z,67.23
2023-02-27T23:07:26.627Z,67.00
2023-02-27T23:09:56.066Z,67.17
2023-02-27T23:12:27.380Z,66.97
2023-02-27T23:14:57.328Z,67.22
2023-02-27T23:17:27.086Z,67.63
2023-02-27T23:19:56.632Z,67.63
2023-02-27T23:22:33.614Z,68.00
2023-02-27T23:25:07.243Z,68.33
2023-02-27T23:27:36.689Z,68.18
2023-02-27T23:30:07.010Z,68.93
2023-02-27T23:32:43.204Z,68.49
2023-02-27T23:35:13.656Z,68.56
2023-02-27T23:37:45.620Z,68.41
2023-02-27T23:40:15.603Z,68.71
2023-02-27T23:42:45.065Z,68.98
2023-02-27T23:45:27.046Z,69.44
2023-02-27T23:47:58.236Z,69.69
2023-02-27T23:50:29.085Z,69.82
2023-02-27T23:53:02.317Z,69.97
2023-02-27T23:55:34.163Z,70.51
2023-02-27T23:58:07.341Z,70.48
